createdAt,value
2018-02-05T00:01:16.301Z,15.90
2018-02-05T00:03:43.713Z,14.57
2018-02-05T00:06:11.319Z,12.93
2018-02-05T00:08:38.753Z,16.23
2018-02-05T00:11:06.145Z,13.33
2018-02-05T00:13:33.547Z,13.63
2018-02-05T00:16:00.949Z,13.17
2018-02-05T00:18:28.345Z,14.07
2018-02-05T00:20:55.741Z,12.77
2018-02-05T00:23:23.138Z,13.07
2018-02-05T00:25:50.565Z,12.17
2018-02-05T00:28:18.057Z,13.07
2018-02-05T00:30:45.517Z,11.93
2018-02-05T00:33:12.949Z,13.20
2018-02-05T00:35:40.336Z,12.23
2018-02-05T00:38:07.729Z,13.77
2018-02-05T00:40:35.121Z,11.17
2018-02-05T00:43:02.573Z,11.10
2018-02-05T00:45:29.962Z,10.53
2018-02-05T00:47:57.365Z,12.63
2018-02-05T00:50:24.819Z,11.13
2018-02-05T00:52:52.213Z,15.30
2018-02-05T00:55:19.614Z,13.10
2018-02-05T00:57:47.010Z,16.00
2018-02-05T01:00:14.413Z,14.90
2018-02-05T01:02:42.197Z,14.60
2018-02-05T01:05:09.589Z,14.30
2018-02-05T01:07:36.989Z,14.07
2018-02-05T01:10:04.427Z,13.47
2018-02-05T01:12:31.817Z,14.57
2018-02-05T01:14:59.209Z,12.77
2018-02-05T01:17:26.608Z,12.67
2018-02-05T01:19:54.017Z,13.63
2018-02-05T01:22:21.445Z,11.23
2018-02-05T01:24:48.833Z,14.53
2018-02-05T01:27:16.229Z,10.97
2018-02-05T01:29:43.620Z,11.67
2018-02-05T01:32:11.041Z,14.27
2018-02-05T01:34:38.525Z,15.43
2018-02-05T01:37:05.960Z,13.70
2018-02-05T01:39:33.542Z,11.97
2018-02-05T01:42:00.965Z,14.17
2018-02-05T01:44:30.208Z,13.33
2018-02-05T01:46:57.696Z,15.53
2018-02-05T01:49:25.096Z,15.17
2018-02-05T01:51:52.504Z,15.03
2018-02-05T01:54:19.911Z,12.97
2018-02-05T01:56:47.308Z,19.97
2018-02-05T01:59:14.711Z,14.77
2018-02-05T02:01:42.109Z,11.77
2018-02-05T02:04:09.665Z,14.37
2018-02-05T02:06:37.173Z,13.20
2018-02-05T02:09:04.649Z,10.70
2018-02-05T02:11:32.045Z,13.13
2018-02-05T02:13:59.445Z,13.43
2018-02-05T02:16:26.889Z,16.67
2018-02-05T02:18:54.321Z,12.50
2018-02-05T02:21:21.722Z,13.50
2018-02-05T02:23:49.124Z,13.17
2018-02-05T02:26:16.569Z,11.33
2018-02-05T02:28:43.993Z,13.47
2018-02-05T02:31:11.389Z,14.93
2018-02-05T02:33:38.828Z,13.00
2018-02-05T02:36:06.268Z,14.73
2018-02-05T02:38:33.661Z,14.80
2018-02-05T02:41:01.049Z,12.80
2018-02-05T02:43:28.486Z,10.90
2018-02-05T02:45:55.873Z,11.30
2018-02-05T02:48:23.261Z,12.53
2018-02-05T02:50:51.712Z,12.97
2018-02-05T02:53:19.173Z,11.13
2018-02-05T02:55:46.569Z,12.43
2018-02-05T02:58:13.973Z,11.27
2018-02-05T03:00:41.374Z,14.47
2018-02-05T03:03:08.805Z,12.47
2018-02-05T03:05:36.217Z,15.30
2018-02-05T03:08:03.617Z,12.93
2018-02-05T03:10:31.057Z,13.73
2018-02-05T03:12:58.480Z,14.27
2018-02-05T03:15:25.893Z,15.55
2018-02-05T03:17:53.289Z,15.43
2018-02-05T03:20:20.697Z,14.50
2018-02-05T03:22:48.109Z,13.10
2018-02-05T03:25:15.557Z,15.63
2018-02-05T03:27:42.954Z,18.00
2018-02-05T03:30:10.354Z,15.23
2018-02-05T03:32:37.781Z,14.97
2018-02-05T03:35:05.177Z,12.67
2018-02-05T03:37:32.569Z,13.27
2018-02-05T03:40:00.011Z,14.30
2018-02-05T03:42:27.421Z,16.40
2018-02-05T03:44:54.817Z,15.40
2018-02-05T03:47:22.274Z,19.73
2018-02-05T03:49:49.745Z,13.57
2018-02-05T03:52:17.156Z,14.87
2018-02-05T03:54:44.549Z,14.20
2018-02-05T03:57:11.941Z,14.13
2018-02-05T03:59:39.377Z,12.87
2018-02-05T04:02:06.773Z,13.10
2018-02-05T04:04:34.178Z,12.87
2018-02-05T04:07:07.325Z,12.77
2018-02-05T04:09:34.723Z,13.07
2018-02-05T04:12:02.154Z,14.50
2018-02-05T04:14:29.555Z,16.03
2018-02-05T04:23:39.776Z,17.30
2018-02-05T04:26:07.189Z,14.23
2018-02-05T04:28:34.586Z,15.60
2018-02-05T04:31:02.019Z,19.17
2018-02-05T04:33:29.417Z,16.53
2018-02-05T04:35:56.817Z,15.55
2018-02-05T04:38:24.275Z,14.87
2018-02-05T04:40:51.721Z,19.47
2018-02-05T04:43:19.113Z,18.97
2018-02-05T04:45:47.133Z,19.70
2018-02-05T04:48:14.529Z,17.40
2018-02-05T04:50:41.921Z,17.33
2018-02-05T04:53:09.321Z,17.17
2018-02-05T04:55:36.945Z,17.17
2018-02-05T04:58:04.337Z,21.40
2018-02-05T05:00:31.729Z,17.87
2018-02-05T05:02:59.129Z,16.40
2018-02-05T05:05:26.553Z,16.15
2018-02-05T05:07:53.961Z,17.37
2018-02-05T05:10:21.354Z,14.47
2018-02-05T05:12:48.777Z,19.63
2018-02-05T05:15:16.177Z,16.60
2018-02-05T05:17:43.585Z,20.12
2018-02-05T05:20:11.034Z,17.58
2018-02-05T05:22:38.441Z,17.40
2018-02-05T05:25:05.865Z,19.15
2018-02-05T05:27:33.311Z,24.58
2018-02-05T05:30:00.717Z,23.17
2018-02-05T05:32:28.124Z,22.33
2018-02-05T05:34:55.561Z,18.93
2018-02-05T05:37:22.953Z,20.00
2018-02-05T05:39:50.357Z,28.63
2018-02-05T05:42:17.762Z,24.17
2018-02-05T05:44:45.214Z,22.17
2018-02-05T05:47:12.669Z,35.70
2018-02-05T05:49:40.065Z,21.77
2018-02-05T05:52:07.462Z,21.37
2018-02-05T05:54:34.857Z,23.10
2018-02-05T05:57:02.324Z,18.50
2018-02-05T05:59:29.721Z,17.13
2018-02-05T06:08:40.463Z,21.35
2018-02-05T06:11:08.841Z,17.80
2018-02-05T06:13:36.276Z,19.40
2018-02-05T06:16:03.681Z,20.67
2018-02-05T06:18:32.025Z,19.33
2018-02-05T06:20:59.420Z,20.47
2018-02-05T06:23:26.822Z,18.60
2018-02-05T06:25:54.230Z,20.30
2018-02-05T06:28:21.634Z,15.17
2018-02-05T06:30:49.041Z,18.30
2018-02-05T06:33:16.515Z,17.93
2018-02-05T06:35:43.924Z,18.37
2018-02-05T06:38:11.325Z,17.57
2018-02-05T06:40:38.816Z,16.93
2018-02-05T06:43:06.246Z,23.33
2018-02-05T06:45:33.649Z,17.97
2018-02-05T06:48:01.081Z,19.63
2018-02-05T06:50:40.509Z,15.30
2018-02-05T06:53:19.749Z,16.43
2018-02-05T06:55:47.181Z,18.30
2018-02-05T06:58:14.594Z,18.23
2018-02-05T07:00:42.034Z,17.53
2018-02-05T07:03:09.465Z,14.53
2018-02-05T07:05:36.965Z,18.57
2018-02-05T07:08:04.357Z,17.53
2018-02-05T07:10:33.452Z,16.53
2018-02-05T07:13:00.845Z,27.50
2018-02-05T07:15:28.338Z,18.30
2018-02-05T07:17:55.773Z,17.13
2018-02-05T07:20:23.213Z,23.13
2018-02-05T07:22:50.624Z,26.47
2018-02-05T07:25:18.056Z,29.53
2018-02-05T07:27:46.349Z,25.33
2018-02-05T07:30:13.749Z,26.27
2018-02-05T07:32:41.150Z,29.57
2018-02-05T07:35:08.606Z,17.87
2018-02-05T07:37:36.173Z,27.83
2018-02-05T07:40:03.565Z,18.50
2018-02-05T07:42:31.017Z,16.23
2018-02-05T07:44:58.603Z,12.47
2018-02-05T07:47:26.000Z,17.23
2018-02-05T07:49:53.455Z,16.80
2018-02-05T07:52:20.896Z,20.83
2018-02-05T07:54:48.330Z,25.23
2018-02-05T07:57:15.741Z,17.53
2018-02-05T07:59:43.149Z,24.83
2018-02-05T08:02:10.762Z,19.33
2018-02-05T08:04:38.301Z,25.60
2018-02-05T08:07:05.717Z,22.10
2018-02-05T08:09:33.977Z,22.73
2018-02-05T08:12:01.439Z,26.00
2018-02-05T08:14:28.915Z,24.07
2018-02-05T08:16:56.313Z,22.13
2018-02-05T08:19:23.737Z,16.40
2018-02-05T08:21:51.185Z,17.73
2018-02-05T08:24:18.639Z,16.70
2018-02-05T08:26:46.040Z,20.10
2018-02-05T08:29:13.484Z,18.30
2018-02-05T08:31:40.886Z,18.23
2018-02-05T08:34:08.278Z,20.77
2018-02-05T08:36:35.714Z,18.03
2018-02-05T08:39:03.180Z,17.13
2018-02-05T08:41:30.575Z,17.40
2018-02-05T08:43:57.999Z,17.10
2018-02-05T08:46:25.445Z,16.23
2018-02-05T08:48:52.839Z,21.67
2018-02-05T08:51:20.233Z,20.53
2018-02-05T08:53:47.702Z,18.43
2018-02-05T08:56:15.158Z,20.50
2018-02-05T08:58:42.558Z,19.93
2018-02-05T09:01:09.997Z,20.37
2018-02-05T09:03:37.406Z,18.80
2018-02-05T09:06:04.798Z,19.00
2018-02-05T09:08:32.194Z,17.93
2018-02-05T09:10:59.593Z,17.97
2018-02-05T09:13:27.033Z,16.70
2018-02-05T09:15:54.445Z,17.13
2018-02-05T09:18:21.858Z,22.13
2018-02-05T09:20:49.261Z,18.03
2018-02-05T09:23:16.662Z,17.07
2018-02-05T09:25:44.097Z,18.53
2018-02-05T09:28:11.493Z,16.93
2018-02-05T09:30:38.893Z,20.53
2018-02-05T09:33:06.337Z,17.60
2018-02-05T09:35:33.747Z,19.47
2018-02-05T09:38:01.182Z,20.07
2018-02-05T09:40:28.610Z,18.50
2018-02-05T09:42:56.046Z,18.20
2018-02-05T09:45:23.443Z,20.83
2018-02-05T09:47:50.841Z,16.93
2018-02-05T09:50:18.288Z,16.40
2018-02-05T09:52:45.681Z,18.77
2018-02-05T09:55:13.077Z,16.00
2018-02-05T09:57:40.509Z,17.77
2018-02-05T10:00:07.925Z,17.47
2018-02-05T10:02:35.338Z,15.43
2018-02-05T10:05:02.791Z,19.33
2018-02-05T10:07:30.189Z,15.00
2018-02-05T10:09:57.589Z,16.07
2018-02-05T10:12:25.022Z,14.70
2018-02-05T10:14:52.427Z,14.87
2018-02-05T10:17:19.825Z,17.83
2018-02-05T10:19:47.257Z,18.47
2018-02-05T10:22:14.667Z,21.37
2018-02-05T10:24:42.065Z,16.50
2018-02-05T10:27:09.501Z,16.83
2018-02-05T10:29:36.893Z,18.97
2018-02-05T10:32:04.293Z,17.63
2018-02-05T10:34:31.765Z,17.50
2018-02-05T10:36:59.197Z,14.97
2018-02-05T10:39:26.617Z,15.63
2018-02-05T10:41:54.039Z,16.13
2018-02-05T10:44:21.433Z,17.37
2018-02-05T10:46:48.825Z,16.73
2018-02-05T10:49:16.265Z,17.97
2018-02-05T10:51:43.781Z,17.13
2018-02-05T10:54:11.181Z,15.60
2018-02-05T10:56:38.577Z,14.33
2018-02-05T10:59:05.980Z,15.80
2018-02-05T11:01:33.458Z,14.27
2018-02-05T11:04:00.859Z,14.00
2018-02-05T11:06:28.261Z,14.87
2018-02-05T11:08:55.698Z,13.70
2018-02-05T11:11:23.097Z,15.00
2018-02-05T11:13:50.594Z,18.43
2018-02-05T11:16:18.056Z,12.80
2018-02-05T11:18:45.492Z,12.43
2018-02-05T11:21:12.889Z,12.23
2018-02-05T11:23:40.278Z,13.30
2018-02-05T11:26:07.718Z,15.47
2018-02-05T11:28:35.118Z,15.80
2018-02-05T11:31:02.540Z,16.17
2018-02-05T11:33:29.983Z,16.23
2018-02-05T11:35:57.385Z,16.50
2018-02-05T11:38:24.794Z,16.20
2018-02-05T11:40:52.195Z,18.33
2018-02-05T11:43:19.589Z,17.03
2018-02-05T11:45:47.021Z,17.30
2018-02-05T11:48:14.419Z,18.13
2018-02-05T11:50:41.841Z,20.93
2018-02-05T11:53:09.314Z,18.23
2018-02-05T11:55:36.741Z,19.83
2018-02-05T11:58:04.180Z,17.67
2018-02-05T12:07:14.841Z,16.87
2018-02-05T12:09:42.245Z,14.73
2018-02-05T12:12:09.645Z,16.10
2018-02-05T12:14:37.062Z,15.43
2018-02-05T12:17:04.597Z,15.40
2018-02-05T12:19:31.989Z,17.20
2018-02-05T12:21:59.397Z,21.57
2018-02-05T12:24:26.833Z,15.67
2018-02-05T12:26:55.901Z,14.00
2018-02-05T12:29:23.313Z,15.27
2018-02-05T12:31:50.742Z,14.13
2018-02-05T12:34:18.275Z,16.33
2018-02-05T12:36:45.705Z,16.40
2018-02-05T12:39:13.145Z,19.00
2018-02-05T12:41:40.559Z,18.03
2018-02-05T12:44:07.973Z,17.97
2018-02-05T12:46:35.433Z,15.77
2018-02-05T12:49:02.829Z,18.00
2018-02-05T12:51:30.237Z,15.07
2018-02-05T12:53:57.656Z,14.60
2018-02-05T12:56:25.133Z,16.03
2018-02-05T12:58:52.565Z,15.20
2018-02-05T13:01:19.997Z,18.83
2018-02-05T13:03:53.041Z,15.60
2018-02-05T13:06:26.122Z,14.87
2018-02-05T13:08:53.544Z,17.10
2018-02-05T13:11:20.950Z,16.93
2018-02-05T13:13:48.363Z,21.03
2018-02-05T13:16:15.795Z,14.90
2018-02-05T13:18:43.193Z,16.13
2018-02-05T13:21:10.604Z,15.63
2018-02-05T13:23:38.071Z,19.27
2018-02-05T13:26:05.485Z,16.63
2018-02-05T13:28:32.887Z,15.37
2018-02-05T13:31:00.322Z,17.13
2018-02-05T13:33:27.721Z,18.03
2018-02-05T13:35:55.117Z,14.97
2018-02-05T13:38:22.565Z,16.73
2018-02-05T13:40:49.977Z,18.57
2018-02-05T13:43:17.374Z,46.37
2018-02-05T13:45:44.793Z,23.80
2018-02-05T13:48:12.225Z,26.13
2018-02-05T13:50:39.625Z,18.47
2018-02-05T13:53:07.017Z,19.03
2018-02-05T13:55:34.408Z,20.27
2018-02-05T13:58:01.801Z,18.00
2018-02-05T14:00:29.233Z,26.27
2018-02-05T14:02:56.625Z,26.37
2018-02-05T14:05:24.022Z,19.57
2018-02-05T14:07:51.431Z,19.37
2018-02-05T14:10:18.829Z,18.30
2018-02-05T14:12:46.263Z,17.03
2018-02-05T14:15:14.213Z,18.47
2018-02-05T14:17:41.609Z,17.43
2018-02-05T14:20:09.041Z,20.90
2018-02-05T14:22:36.433Z,21.77
2018-02-05T14:25:03.870Z,17.40
2018-02-05T14:27:31.269Z,21.87
2018-02-05T14:29:58.673Z,17.43
2018-02-05T14:32:26.094Z,17.80
2018-02-05T14:34:53.525Z,19.23
2018-02-05T14:37:20.929Z,15.57
2018-02-05T14:39:48.322Z,23.07
2018-02-05T14:42:15.785Z,19.80
2018-02-05T14:44:43.182Z,17.20
2018-02-05T14:47:10.577Z,19.00
2018-02-05T14:49:37.986Z,20.03
2018-02-05T14:52:05.470Z,15.87
2018-02-05T14:54:32.953Z,17.03
2018-02-05T14:57:00.361Z,17.17
2018-02-05T14:59:27.766Z,19.00
2018-02-05T15:01:55.201Z,16.20
2018-02-05T15:04:22.597Z,18.03
2018-02-05T15:06:50.017Z,17.37
2018-02-05T15:09:17.885Z,16.53
2018-02-05T15:11:45.288Z,17.13
2018-02-05T15:14:12.697Z,17.23
2018-02-05T15:16:40.097Z,17.67
2018-02-05T15:19:07.529Z,19.50
2018-02-05T15:21:34.925Z,19.33
2018-02-05T15:24:02.325Z,20.80
2018-02-05T15:26:29.753Z,17.50
2018-02-05T15:28:57.149Z,21.67
2018-02-05T15:31:24.565Z,22.23
2018-02-05T15:33:51.999Z,19.17
2018-02-05T15:36:19.413Z,20.30
2018-02-05T15:38:46.809Z,19.47
2018-02-05T15:41:14.293Z,22.63
2018-02-05T15:43:41.689Z,23.27
2018-02-05T15:46:09.085Z,24.80
2018-02-05T15:48:36.489Z,22.23
2018-02-05T15:51:03.898Z,24.20
2018-02-05T15:53:31.357Z,25.40
2018-02-05T15:55:58.761Z,23.43
2018-02-05T15:58:29.675Z,24.70
2018-02-05T16:00:57.179Z,23.53
2018-02-05T16:03:24.573Z,26.83
2018-02-05T16:05:52.031Z,27.10
2018-02-05T16:08:19.476Z,28.03
2018-02-05T16:10:46.889Z,25.20
2018-02-05T16:13:14.421Z,27.07
2018-02-05T16:15:41.867Z,25.97
2018-02-05T16:18:09.262Z,34.27
2018-02-05T16:20:36.657Z,25.13
2018-02-05T16:23:04.070Z,27.33
2018-02-05T16:25:31.505Z,31.30
2018-02-05T16:27:58.909Z,38.27
2018-02-05T16:30:26.313Z,31.40
2018-02-05T16:32:53.762Z,29.10
2018-02-05T16:35:21.157Z,32.23
2018-02-05T16:37:48.549Z,33.53
2018-02-05T16:40:15.997Z,34.10
2018-02-05T16:42:44.589Z,33.67
2018-02-05T16:45:12.034Z,38.10
2018-02-05T16:47:39.435Z,36.73
2018-02-05T16:50:07.225Z,35.17
2018-02-05T16:52:34.628Z,33.50
2018-02-05T16:55:02.070Z,40.67
2018-02-05T16:57:29.501Z,46.23
2018-02-05T16:59:56.950Z,36.70
2018-02-05T17:02:25.013Z,48.30
2018-02-05T17:04:52.410Z,45.53
2018-02-05T17:07:19.955Z,44.67
2018-02-05T17:09:47.353Z,40.20
2018-02-05T17:12:14.754Z,51.33
2018-02-05T17:14:42.292Z,48.83
2018-02-05T17:17:09.746Z,39.90
2018-02-05T17:19:37.145Z,47.63
2018-02-05T17:22:04.547Z,51.50
2018-02-05T17:24:31.981Z,51.23
2018-02-05T17:26:59.380Z,50.60
2018-02-05T17:29:26.800Z,40.97
2018-02-05T17:31:54.282Z,40.17
2018-02-05T17:34:21.681Z,137.57
2018-02-05T17:36:49.077Z,38.70
2018-02-05T17:39:16.514Z,38.13
2018-02-05T17:41:43.921Z,34.77
2018-02-05T17:44:11.372Z,37.00
2018-02-05T17:46:38.828Z,43.20
2018-02-05T17:49:06.230Z,41.80
2018-02-05T17:51:33.649Z,37.67
2018-02-05T17:54:01.145Z,38.17
2018-02-05T17:56:28.558Z,43.33
2018-02-05T17:58:55.953Z,39.97
2018-02-05T18:01:23.431Z,43.90
2018-02-05T18:03:50.826Z,43.60
2018-02-05T18:06:18.253Z,41.43
2018-02-05T18:08:45.733Z,47.70
2018-02-05T18:11:13.123Z,40.30
2018-02-05T18:13:40.521Z,42.00
2018-02-05T18:16:07.962Z,48.07
2018-02-05T18:18:35.395Z,44.37
2018-02-05T18:21:02.851Z,46.67
2018-02-05T18:23:30.269Z,40.20
2018-02-05T18:25:57.665Z,45.33
2018-02-05T18:28:25.078Z,41.60
2018-02-05T18:30:52.473Z,43.20
2018-02-05T18:33:19.926Z,37.87
2018-02-05T18:35:47.367Z,40.27
2018-02-05T18:38:14.806Z,39.23
2018-02-05T18:40:42.244Z,38.63
2018-02-05T18:43:09.682Z,43.43
2018-02-05T18:45:37.118Z,47.70
2018-02-05T18:48:04.554Z,44.37
2018-02-05T18:50:31.945Z,58.50
2018-02-05T18:52:59.342Z,45.27
2018-02-05T18:55:26.785Z,49.43
2018-02-05T18:57:54.266Z,42.37
2018-02-05T19:00:33.439Z,40.87
2018-02-05T19:03:00.840Z,41.53
2018-02-05T19:05:28.968Z,43.03
2018-02-05T19:07:56.410Z,34.33
2018-02-05T19:10:23.841Z,36.07
2018-02-05T19:12:51.245Z,36.00
2018-02-05T19:15:18.666Z,41.53
2018-02-05T19:17:46.109Z,40.07
2018-02-05T19:20:13.507Z,35.87
2018-02-05T19:22:40.906Z,42.73
2018-02-05T19:25:08.349Z,43.03
2018-02-05T19:27:35.792Z,41.60
2018-02-05T19:30:03.189Z,38.70
2018-02-05T19:32:30.629Z,40.13
2018-02-05T19:34:58.026Z,38.40
2018-02-05T19:37:25.421Z,46.70
2018-02-05T19:39:52.889Z,47.47
2018-02-05T19:42:20.286Z,50.90
2018-02-05T19:44:47.686Z,45.73
2018-02-05T19:47:15.090Z,65.90
2018-02-05T19:49:42.502Z,84.40
2018-02-05T19:52:09.947Z,76.67
2018-02-05T19:54:38.221Z,44.80
2018-02-05T19:57:05.630Z,50.93
2018-02-05T19:59:33.046Z,44.10
2018-02-05T20:02:01.932Z,45.20
2018-02-05T20:04:29.333Z,44.83
2018-02-05T20:06:56.737Z,46.23
2018-02-05T20:09:24.213Z,40.27
2018-02-05T20:11:51.624Z,40.33
2018-02-05T20:14:19.060Z,32.23
2018-02-05T20:16:46.475Z,35.43
2018-02-05T20:19:13.889Z,35.93
2018-02-05T20:21:41.337Z,39.03
2018-02-05T20:24:08.771Z,36.67
2018-02-05T20:26:36.181Z,36.67
2018-02-05T20:29:03.582Z,43.13
2018-02-05T20:31:31.005Z,38.93
2018-02-05T20:33:58.711Z,39.80
2018-02-05T20:36:26.216Z,42.33
2018-02-05T20:38:53.670Z,39.13
2018-02-05T20:41:21.096Z,41.20
2018-02-05T20:43:48.524Z,48.77
2018-02-05T20:46:15.997Z,38.13
2018-02-05T20:48:43.433Z,40.00
2018-02-05T20:51:10.958Z,39.87
2018-02-05T20:53:38.421Z,39.07
2018-02-05T20:56:05.826Z,52.73
2018-02-05T20:58:33.237Z,69.20
2018-02-05T21:01:00.670Z,70.43
2018-02-05T21:03:28.075Z,63.67
2018-02-05T21:05:55.468Z,59.37
2018-02-05T21:08:23.440Z,40.03
2018-02-05T21:10:50.842Z,42.97
2018-02-05T21:13:18.364Z,42.87
2018-02-05T21:15:45.764Z,42.00
2018-02-05T21:18:13.178Z,37.83
2018-02-05T21:20:40.725Z,38.03
2018-02-05T21:23:08.149Z,39.00
2018-02-05T21:25:35.611Z,38.20
2018-02-05T21:28:03.040Z,35.90
2018-02-05T21:30:30.505Z,38.97
2018-02-05T21:32:57.938Z,36.60
2018-02-05T21:35:25.370Z,37.30
2018-02-05T21:37:53.608Z,37.53
2018-02-05T21:40:22.893Z,36.07
2018-02-05T21:42:50.290Z,38.70
2018-02-05T21:45:17.692Z,36.27
2018-02-05T21:47:45.094Z,34.73
2018-02-05T21:50:12.497Z,37.03
2018-02-05T21:52:39.894Z,42.77
2018-02-05T21:55:07.349Z,65.67
2018-02-05T21:57:34.745Z,51.43
2018-02-05T22:00:02.174Z,37.20
2018-02-05T22:02:29.570Z,39.07
2018-02-05T22:04:56.962Z,39.10
2018-02-05T22:07:24.382Z,35.30
2018-02-05T22:09:51.796Z,35.17
2018-02-05T22:12:19.246Z,34.33
2018-02-05T22:14:46.862Z,30.97
2018-02-05T22:17:14.270Z,38.57
2018-02-05T22:19:41.706Z,39.63
2018-02-05T22:22:09.097Z,33.50
2018-02-05T22:24:36.511Z,35.33
2018-02-05T22:27:03.941Z,40.80
2018-02-05T22:29:31.333Z,42.83
2018-02-05T22:31:58.805Z,43.07
2018-02-05T22:34:26.242Z,39.57
2018-02-05T22:36:54.353Z,44.13
2018-02-05T22:39:21.756Z,40.70
2018-02-05T22:41:49.153Z,40.43
2018-02-05T22:44:16.591Z,38.03
2018-02-05T22:46:44.025Z,41.27
2018-02-05T22:49:12.122Z,44.13
2018-02-05T22:51:39.513Z,42.97
2018-02-05T22:54:06.906Z,39.90
2018-02-05T22:56:34.549Z,38.53
2018-02-05T22:59:01.943Z,38.10
2018-02-05T23:01:29.810Z,36.57
2018-02-05T23:03:57.209Z,40.77
2018-02-05T23:06:24.605Z,39.83
2018-02-05T23:08:54.022Z,41.37
2018-02-05T23:11:21.429Z,41.22
2018-02-05T23:13:48.826Z,41.90
2018-02-05T23:16:16.237Z,40.77
2018-02-05T23:18:43.633Z,44.57
2018-02-05T23:21:12.344Z,48.03
2018-02-05T23:23:39.789Z,45.13
2018-02-05T23:26:10.034Z,42.77
2018-02-05T23:28:37.437Z,37.93
2018-02-05T23:31:04.833Z,39.17
2018-02-05T23:33:32.570Z,35.83
2018-02-05T23:36:00.509Z,40.80
2018-02-05T23:38:28.151Z,35.13
2018-02-05T23:40:55.609Z,43.47
2018-02-05T23:43:22.998Z,35.90
2018-02-05T23:45:50.393Z,37.03
2018-02-05T23:48:17.794Z,35.97
2018-02-05T23:50:45.205Z,43.03
2018-02-05T23:53:12.596Z,39.37
2018-02-05T23:55:40.030Z,36.43
2018-02-05T23:58:07.424Z,40.90
